sensor_id;sensor_type;location;lat;lon;timestamp;P1;durP1;ratioP1;P2;durP2;ratioP2
51382;SDS011;37475;43.358;1.248;2022-08-11T00:00:39;12.02;;;5.65;;
51382;SDS011;37475;43.358;1.248;2022-08-11T00:03:08;7.13;;;5.15;;
51382;SDS011;37475;43.358;1.248;2022-08-11T00:05:43;8.35;;;4.97;;
51382;SDS011;37475;43.358;1.248;2022-08-11T00:08:29;7.78;;;4.95;;
51382;SDS011;37475;43.358;1.248;2022-08-11T00:11:05;9.55;;;4.97;;
51382;SDS011;37475;43.358;1.248;2022-08-11T00:13:35;8.57;;;4.80;;
51382;SDS011;37475;43.358;1.248;2022-08-11T00:16:14;8.38;;;4.80;;
51382;SDS011;37475;43.358;1.248;2022-08-11T00:18:49;6.70;;;4.85;;
51382;SDS011;37475;43.358;1.248;2022-08-11T00:21:18;8.30;;;5.00;;
51382;SDS011;37475;43.358;1.248;2022-08-11T00:23:53;8.43;;;4.88;;
51382;SDS011;37475;43.358;1.248;2022-08-11T00:26:25;8.85;;;5.18;;
51382;SDS011;37475;43.358;1.248;2022-08-11T00:28:53;6.88;;;5.00;;
51382;SDS011;37475;43.358;1.248;2022-08-11T00:31:27;7.13;;;4.60;;
51382;SDS011;37475;43.358;1.248;2022-08-11T00:33:55;5.75;;;4.45;;
51382;SDS011;37475;43.358;1.248;2022-08-11T00:36:26;6.25;;;4.53;;
51382;SDS011;37475;43.358;1.248;2022-08-11T00:39:16;5.93;;;4.60;;
51382;SDS011;37475;43.358;1.248;2022-08-11T01:16:13;6.78;;;5.10;;
51382;SDS011;37475;43.358;1.248;2022-08-11T01:34:07;7.93;;;4.85;;
51382;SDS011;37475;43.358;1.248;2022-08-11T01:37:29;5.88;;;4.50;;
51382;SDS011;37475;43.358;1.248;2022-08-11T01:41:02;8.35;;;4.35;;
51382;SDS011;37475;43.358;1.248;2022-08-11T01:44:20;6.78;;;4.50;;
51382;SDS011;37475;43.358;1.248;2022-08-11T01:47:28;8.55;;;4.57;;
51382;SDS011;37475;43.358;1.248;2022-08-11T01:50:26;6.53;;;4.53;;
51382;SDS011;37475;43.358;1.248;2022-08-11T01:53:20;6.35;;;4.60;;
51382;SDS011;37475;43.358;1.248;2022-08-11T01:59:16;7.00;;;4.53;;
51382;SDS011;37475;43.358;1.248;2022-08-11T02:01:53;5.93;;;4.63;;
51382;SDS011;37475;43.358;1.248;2022-08-11T02:04:47;6.57;;;4.63;;
51382;SDS011;37475;43.358;1.248;2022-08-11T02:13:40;7.40;;;4.07;;
51382;SDS011;37475;43.358;1.248;2022-08-11T02:16:49;6.15;;;4.13;;
51382;SDS011;37475;43.358;1.248;2022-08-11T02:23:01;6.15;;;4.70;;
51382;SDS011;37475;43.358;1.248;2022-08-11T02:32:11;6.47;;;4.85;;
51382;SDS011;37475;43.358;1.248;2022-08-11T02:35:56;8.02;;;5.57;;
51382;SDS011;37475;43.358;1.248;2022-08-11T02:41:27;9.10;;;5.75;;
51382;SDS011;37475;43.358;1.248;2022-08-11T02:44:43;6.93;;;5.72;;
51382;SDS011;37475;43.358;1.248;2022-08-11T02:50:37;10.82;;;6.25;;
51382;SDS011;37475;43.358;1.248;2022-08-11T03:01:59;8.25;;;6.88;;
51382;SDS011;37475;43.358;1.248;2022-08-11T03:10:20;9.13;;;6.90;;
51382;SDS011;37475;43.358;1.248;2022-08-11T03:13:00;9.93;;;6.97;;
51382;SDS011;37475;43.358;1.248;2022-08-11T03:16:11;11.45;;;7.35;;
51382;SDS011;37475;43.358;1.248;2022-08-11T03:39:21;9.35;;;7.97;;
51382;SDS011;37475;43.358;1.248;2022-08-11T03:42:21;12.32;;;8.10;;
51382;SDS011;37475;43.358;1.248;2022-08-11T03:48:27;11.10;;;8.20;;
51382;SDS011;37475;43.358;1.248;2022-08-11T03:54:09;9.38;;;8.43;;
51382;SDS011;37475;43.358;1.248;2022-08-11T04:00:44;11.88;;;8.68;;
51382;SDS011;37475;43.358;1.248;2022-08-11T04:40:53;10.23;;;8.88;;
51382;SDS011;37475;43.358;1.248;2022-08-11T04:53:57;10.52;;;8.93;;
51382;SDS011;37475;43.358;1.248;2022-08-11T04:56:51;11.38;;;8.50;;
51382;SDS011;37475;43.358;1.248;2022-08-11T05:14:51;9.63;;;7.38;;
51382;SDS011;37475;43.358;1.248;2022-08-11T05:17:40;12.13;;;7.57;;
51382;SDS011;37475;43.358;1.248;2022-08-11T05:20:50;11.95;;;7.55;;
51382;SDS011;37475;43.358;1.248;2022-08-11T05:23:42;10.15;;;8.10;;
51382;SDS011;37475;43.358;1.248;2022-08-11T05:26:38;8.68;;;7.65;;
51382;SDS011;37475;43.358;1.248;2022-08-11T05:29:50;11.85;;;7.95;;
51382;SDS011;37475;43.358;1.248;2022-08-11T05:38:41;11.60;;;9.23;;
51382;SDS011;37475;43.358;1.248;2022-08-11T05:41:39;16.98;;;10.00;;
51382;SDS011;37475;43.358;1.248;2022-08-11T05:44:25;14.70;;;9.50;;
51382;SDS011;37475;43.358;1.248;2022-08-11T05:47:20;11.95;;;9.10;;
51382;SDS011;37475;43.358;1.248;2022-08-11T05:50:13;15.25;;;9.75;;
51382;SDS011;37475;43.358;1.248;2022-08-11T05:53:00;12.40;;;9.00;;
51382;SDS011;37475;43.358;1.248;2022-08-11T05:55:46;12.65;;;9.57;;
51382;SDS011;37475;43.358;1.248;2022-08-11T05:58:34;11.90;;;9.38;;
51382;SDS011;37475;43.358;1.248;2022-08-11T06:01:03;12.40;;;9.70;;
51382;SDS011;37475;43.358;1.248;2022-08-11T06:03:30;11.90;;;10.27;;
51382;SDS011;37475;43.358;1.248;2022-08-11T06:06:19;13.27;;;9.68;;
51382;SDS011;37475;43.358;1.248;2022-08-11T06:08:46;15.48;;;10.48;;
51382;SDS011;37475;43.358;1.248;2022-08-11T06:11:13;14.10;;;10.98;;
51382;SDS011;37475;43.358;1.248;2022-08-11T06:13:42;12.63;;;9.88;;
51382;SDS011;37475;43.358;1.248;2022-08-11T06:16:10;12.85;;;10.07;;
51382;SDS011;37475;43.358;1.248;2022-08-11T06:18:44;11.32;;;9.75;;
51382;SDS011;37475;43.358;1.248;2022-08-11T06:21:11;11.85;;;9.95;;
51382;SDS011;37475;43.358;1.248;2022-08-11T06:23:39;12.88;;;9.88;;
51382;SDS011;37475;43.358;1.248;2022-08-11T06:26:10;10.50;;;9.40;;
51382;SDS011;37475;43.358;1.248;2022-08-11T06:28:39;11.52;;;9.43;;
51382;SDS011;37475;43.358;1.248;2022-08-11T06:31:13;14.25;;;9.48;;
51382;SDS011;37475;43.358;1.248;2022-08-11T06:39:57;10.40;;;9.30;;
51382;SDS011;37475;43.358;1.248;2022-08-11T06:45:29;12.13;;;8.88;;
51382;SDS011;37475;43.358;1.248;2022-08-11T06:48:22;12.63;;;9.15;;
51382;SDS011;37475;43.358;1.248;2022-08-11T06:50:49;10.65;;;8.63;;
51382;SDS011;37475;43.358;1.248;2022-08-11T06:53:38;9.05;;;8.15;;
51382;SDS011;37475;43.358;1.248;2022-08-11T06:56:50;9.27;;;8.00;;
51382;SDS011;37475;43.358;1.248;2022-08-11T06:59:28;10.00;;;7.85;;
51382;SDS011;37475;43.358;1.248;2022-08-11T07:02:48;12.60;;;8.15;;
51382;SDS011;37475;43.358;1.248;2022-08-11T07:05:30;9.43;;;7.60;;
51382;SDS011;37475;43.358;1.248;2022-08-11T07:08:39;9.65;;;7.25;;
51382;SDS011;37475;43.358;1.248;2022-08-11T07:14:51;8.02;;;6.93;;
51382;SDS011;37475;43.358;1.248;2022-08-11T07:18:00;7.65;;;6.50;;
51382;SDS011;37475;43.358;1.248;2022-08-11T07:20:46;9.63;;;6.20;;
51382;SDS011;37475;43.358;1.248;2022-08-11T07:23:31;7.50;;;5.50;;
51382;SDS011;37475;43.358;1.248;2022-08-11T07:26:19;7.88;;;5.97;;
51382;SDS011;37475;43.358;1.248;2022-08-11T07:29:08;10.15;;;5.55;;
51382;SDS011;37475;43.358;1.248;2022-08-11T07:31:49;6.70;;;5.05;;
51382;SDS011;37475;43.358;1.248;2022-08-11T07:37:03;7.38;;;5.80;;
51382;SDS011;37475;43.358;1.248;2022-08-11T07:39:40;7.45;;;5.32;;
51382;SDS011;37475;43.358;1.248;2022-08-11T07:42:09;9.55;;;5.38;;
51382;SDS011;37475;43.358;1.248;2022-08-11T07:44:39;11.18;;;5.47;;
51382;SDS011;37475;43.358;1.248;2022-08-11T07:47:26;10.07;;;5.63;;
51382;SDS011;37475;43.358;1.248;2022-08-11T07:50:11;7.15;;;5.18;;
51382;SDS011;37475;43.358;1.248;2022-08-11T07:52:57;8.15;;;5.22;;
51382;SDS011;37475;43.358;1.248;2022-08-11T07:55:24;8.65;;;5.20;;
51382;SDS011;37475;43.358;1.248;2022-08-11T07:57:52;8.70;;;5.32;;
51382;SDS011;37475;43.358;1.248;2022-08-11T08:00:38;7.03;;;5.45;;
51382;SDS011;37475;43.358;1.248;2022-08-11T08:03:29;6.82;;;5.22;;
51382;SDS011;37475;43.358;1.248;2022-08-11T08:06:15;8.80;;;5.60;;
51382;SDS011;37475;43.358;1.248;2022-08-11T08:09:01;8.75;;;5.80;;
51382;SDS011;37475;43.358;1.248;2022-08-11T08:11:46;7.88;;;5.65;;
51382;SDS011;37475;43.358;1.248;2022-08-11T08:14:31;10.20;;;5.45;;
51382;SDS011;37475;43.358;1.248;2022-08-11T08:17:18;6.47;;;5.32;;
51382;SDS011;37475;43.358;1.248;2022-08-11T08:20:04;7.45;;;5.57;;
51382;SDS011;37475;43.358;1.248;2022-08-11T08:22:34;9.18;;;5.78;;
51382;SDS011;37475;43.358;1.248;2022-08-11T08:25:01;10.32;;;5.70;;
51382;SDS011;37475;43.358;1.248;2022-08-11T08:27:27;8.25;;;6.07;;
51382;SDS011;37475;43.358;1.248;2022-08-11T08:29:53;8.93;;;5.88;;
51382;SDS011;37475;43.358;1.248;2022-08-11T08:32:39;10.05;;;6.03;;
51382;SDS011;37475;43.358;1.248;2022-08-11T08:35:11;8.50;;;6.10;;
51382;SDS011;37475;43.358;1.248;2022-08-11T08:37:37;9.20;;;6.03;;
51382;SDS011;37475;43.358;1.248;2022-08-11T08:40:05;10.55;;;6.25;;
51382;SDS011;37475;43.358;1.248;2022-08-11T08:42:34;9.57;;;6.38;;
51382;SDS011;37475;43.358;1.248;2022-08-11T08:45:12;9.88;;;6.50;;
51382;SDS011;37475;43.358;1.248;2022-08-11T08:47:44;9.80;;;5.70;;
51382;SDS011;37475;43.358;1.248;2022-08-11T08:50:16;7.70;;;5.25;;
51382;SDS011;37475;43.358;1.248;2022-08-11T08:52:55;9.50;;;6.45;;
51382;SDS011;37475;43.358;1.248;2022-08-11T08:55:28;9.05;;;6.00;;
51382;SDS011;37475;43.358;1.248;2022-08-11T08:57:56;8.77;;;6.38;;
51382;SDS011;37475;43.358;1.248;2022-08-11T09:00:24;11.02;;;6.05;;
51382;SDS011;37475;43.358;1.248;2022-08-11T09:03:04;10.10;;;6.53;;
51382;SDS011;37475;43.358;1.248;2022-08-11T09:05:30;9.20;;;6.72;;
51382;SDS011;37475;43.358;1.248;2022-08-11T09:07:56;10.35;;;6.45;;
51382;SDS011;37475;43.358;1.248;2022-08-11T09:10:22;10.05;;;6.43;;
51382;SDS011;37475;43.358;1.248;2022-08-11T09:12:49;9.55;;;6.45;;
51382;SDS011;37475;43.358;1.248;2022-08-11T09:15:15;9.68;;;6.72;;
51382;SDS011;37475;43.358;1.248;2022-08-11T09:17:44;12.27;;;6.38;;
51382;SDS011;37475;43.358;1.248;2022-08-11T09:20:25;11.23;;;5.80;;
51382;SDS011;37475;43.358;1.248;2022-08-11T09:22:56;8.52;;;5.88;;
51382;SDS011;37475;43.358;1.248;2022-08-11T09:25:44;8.90;;;6.60;;
51382;SDS011;37475;43.358;1.248;2022-08-11T09:28:29;29.67;;;7.43;;
51382;SDS011;37475;43.358;1.248;2022-08-11T09:30:57;8.40;;;5.55;;
51382;SDS011;37475;43.358;1.248;2022-08-11T09:33:26;7.53;;;5.63;;
51382;SDS011;37475;43.358;1.248;2022-08-11T09:35:54;8.65;;;5.60;;
51382;SDS011;37475;43.358;1.248;2022-08-11T09:38:22;9.45;;;5.35;;
51382;SDS011;37475;43.358;1.248;2022-08-11T09:41:10;8.55;;;5.40;;
51382;SDS011;37475;43.358;1.248;2022-08-11T09:43:44;15.23;;;5.80;;
51382;SDS011;37475;43.358;1.248;2022-08-11T09:46:30;8.55;;;5.25;;
51382;SDS011;37475;43.358;1.248;2022-08-11T09:48:59;8.35;;;5.15;;
51382;SDS011;37475;43.358;1.248;2022-08-11T09:51:31;6.70;;;5.07;;
51382;SDS011;37475;43.358;1.248;2022-08-11T09:54:01;7.20;;;5.15;;
51382;SDS011;37475;43.358;1.248;2022-08-11T09:56:32;7.93;;;5.13;;
51382;SDS011;37475;43.358;1.248;2022-08-11T09:59:17;6.72;;;5.18;;
51382;SDS011;37475;43.358;1.248;2022-08-11T10:01:46;9.88;;;5.25;;
51382;SDS011;37475;43.358;1.248;2022-08-11T10:06:58;9.68;;;5.47;;
51382;SDS011;37475;43.358;1.248;2022-08-11T10:09:48;7.18;;;5.35;;
51382;SDS011;37475;43.358;1.248;2022-08-11T10:12:33;7.65;;;4.60;;
51382;SDS011;37475;43.358;1.248;2022-08-11T10:17:38;7.05;;;4.85;;
51382;SDS011;37475;43.358;1.248;2022-08-11T10:20:44;7.10;;;4.55;;
51382;SDS011;37475;43.358;1.248;2022-08-11T10:23:15;7.75;;;4.93;;
51382;SDS011;37475;43.358;1.248;2022-08-11T10:26:02;10.20;;;5.15;;
51382;SDS011;37475;43.358;1.248;2022-08-11T10:28:47;7.05;;;4.78;;
51382;SDS011;37475;43.358;1.248;2022-08-11T10:31:14;8.15;;;4.38;;
51382;SDS011;37475;43.358;1.248;2022-08-11T10:34:00;5.93;;;4.40;;
51382;SDS011;37475;43.358;1.248;2022-08-11T10:36:30;8.30;;;4.80;;
51382;SDS011;37475;43.358;1.248;2022-08-11T10:39:17;8.75;;;4.50;;
51382;SDS011;37475;43.358;1.248;2022-08-11T10:41:45;6.05;;;4.30;;
51382;SDS011;37475;43.358;1.248;2022-08-11T10:44:31;5.20;;;3.88;;
51382;SDS011;37475;43.358;1.248;2022-08-11T10:47:06;7.82;;;4.05;;
51382;SDS011;37475;43.358;1.248;2022-08-11T10:49:54;5.70;;;4.20;;
51382;SDS011;37475;43.358;1.248;2022-08-11T10:52:40;7.32;;;4.15;;
51382;SDS011;37475;43.358;1.248;2022-08-11T10:55:25;6.70;;;3.92;;
51382;SDS011;37475;43.358;1.248;2022-08-11T10:58:10;6.78;;;3.80;;
51382;SDS011;37475;43.358;1.248;2022-08-11T11:00:56;8.43;;;4.00;;
51382;SDS011;37475;43.358;1.248;2022-08-11T11:03:25;6.18;;;3.80;;
51382;SDS011;37475;43.358;1.248;2022-08-11T11:06:07;5.55;;;3.53;;
51382;SDS011;37475;43.358;1.248;2022-08-11T11:08:43;8.50;;;4.10;;
51382;SDS011;37475;43.358;1.248;2022-08-11T11:11:18;5.25;;;3.45;;
51382;SDS011;37475;43.358;1.248;2022-08-11T11:13:46;7.93;;;3.60;;
51382;SDS011;37475;43.358;1.248;2022-08-11T11:16:36;4.93;;;3.35;;
51382;SDS011;37475;43.358;1.248;2022-08-11T11:19:23;6.60;;;3.60;;
51382;SDS011;37475;43.358;1.248;2022-08-11T11:21:53;6.22;;;3.63;;
51382;SDS011;37475;43.358;1.248;2022-08-11T11:24:41;4.93;;;3.63;;
51382;SDS011;37475;43.358;1.248;2022-08-11T11:27:31;6.75;;;3.55;;
51382;SDS011;37475;43.358;1.248;2022-08-11T11:31:16;6.82;;;3.33;;
51382;SDS011;37475;43.358;1.248;2022-08-11T11:34:19;6.93;;;3.60;;
51382;SDS011;37475;43.358;1.248;2022-08-11T11:37:29;5.38;;;3.08;;
51382;SDS011;37475;43.358;1.248;2022-08-11T11:40:00;5.80;;;3.30;;
51382;SDS011;37475;43.358;1.248;2022-08-11T11:42:30;5.55;;;3.30;;
51382;SDS011;37475;43.358;1.248;2022-08-11T11:44:56;6.25;;;3.35;;
51382;SDS011;37475;43.358;1.248;2022-08-11T11:47:23;5.10;;;3.20;;
51382;SDS011;37475;43.358;1.248;2022-08-11T11:49:50;5.00;;;3.00;;
51382;SDS011;37475;43.358;1.248;2022-08-11T11:52:19;6.90;;;3.47;;
51382;SDS011;37475;43.358;1.248;2022-08-11T11:54:46;7.43;;;3.40;;
51382;SDS011;37475;43.358;1.248;2022-08-11T11:57:15;4.63;;;3.13;;
51382;SDS011;37475;43.358;1.248;2022-08-11T12:00:05;5.13;;;2.95;;
51382;SDS011;37475;43.358;1.248;2022-08-11T12:02:53;5.65;;;3.10;;
51382;SDS011;37475;43.358;1.248;2022-08-11T12:05:23;5.03;;;3.00;;
51382;SDS011;37475;43.358;1.248;2022-08-11T12:07:51;5.30;;;3.15;;
51382;SDS011;37475;43.358;1.248;2022-08-11T12:10:44;4.50;;;3.10;;
51382;SDS011;37475;43.358;1.248;2022-08-11T12:13:46;5.50;;;3.13;;
51382;SDS011;37475;43.358;1.248;2022-08-11T12:16:15;5.57;;;3.00;;
51382;SDS011;37475;43.358;1.248;2022-08-11T12:18:44;5.88;;;3.00;;
51382;SDS011;37475;43.358;1.248;2022-08-11T12:21:17;8.10;;;2.90;;
51382;SDS011;37475;43.358;1.248;2022-08-11T12:23:44;8.30;;;2.80;;
51382;SDS011;37475;43.358;1.248;2022-08-11T12:26:31;5.00;;;2.90;;
51382;SDS011;37475;43.358;1.248;2022-08-11T12:31:41;5.05;;;2.90;;
51382;SDS011;37475;43.358;1.248;2022-08-11T12:34:09;5.10;;;2.85;;
51382;SDS011;37475;43.358;1.248;2022-08-11T12:36:43;5.70;;;2.50;;
51382;SDS011;37475;43.358;1.248;2022-08-11T12:39:18;7.50;;;3.03;;
51382;SDS011;37475;43.358;1.248;2022-08-11T12:42:09;5.68;;;3.00;;
51382;SDS011;37475;43.358;1.248;2022-08-11T12:44:57;4.00;;;2.65;;
51382;SDS011;37475;43.358;1.248;2022-08-11T12:47:45;6.97;;;3.13;;
51382;SDS011;37475;43.358;1.248;2022-08-11T12:50:35;5.57;;;2.95;;
51382;SDS011;37475;43.358;1.248;2022-08-11T12:53:22;3.67;;;2.70;;
51382;SDS011;37475;43.358;1.248;2022-08-11T12:55:56;5.00;;;2.90;;
51382;SDS011;37475;43.358;1.248;2022-08-11T12:58:47;4.90;;;2.90;;
51382;SDS011;37475;43.358;1.248;2022-08-11T13:01:15;4.68;;;3.00;;
51382;SDS011;37475;43.358;1.248;2022-08-11T13:04:00;5.07;;;2.80;;
51382;SDS011;37475;43.358;1.248;2022-08-11T13:06:47;5.35;;;3.00;;
51382;SDS011;37475;43.358;1.248;2022-08-11T13:09:15;5.82;;;2.90;;
51382;SDS011;37475;43.358;1.248;2022-08-11T13:11:41;8.73;;;2.80;;
51382;SDS011;37475;43.358;1.248;2022-08-11T13:14:28;6.40;;;2.92;;
51382;SDS011;37475;43.358;1.248;2022-08-11T13:16:57;6.57;;;2.88;;
51382;SDS011;37475;43.358;1.248;2022-08-11T13:19:42;4.28;;;2.72;;
51382;SDS011;37475;43.358;1.248;2022-08-11T13:22:09;6.18;;;3.22;;
51382;SDS011;37475;43.358;1.248;2022-08-11T13:24:36;4.47;;;3.05;;
51382;SDS011;37475;43.358;1.248;2022-08-11T13:27:04;6.78;;;3.10;;
51382;SDS011;37475;43.358;1.248;2022-08-11T13:29:31;4.22;;;3.00;;
51382;SDS011;37475;43.358;1.248;2022-08-11T13:31:59;7.18;;;3.03;;
51382;SDS011;37475;43.358;1.248;2022-08-11T13:34:26;4.50;;;2.92;;
51382;SDS011;37475;43.358;1.248;2022-08-11T13:36:55;5.43;;;2.80;;
51382;SDS011;37475;43.358;1.248;2022-08-11T13:39:25;5.97;;;2.83;;
51382;SDS011;37475;43.358;1.248;2022-08-11T13:41:56;6.30;;;3.10;;
51382;SDS011;37475;43.358;1.248;2022-08-11T13:44:25;4.65;;;2.83;;
51382;SDS011;37475;43.358;1.248;2022-08-11T13:47:01;6.40;;;3.22;;
51382;SDS011;37475;43.358;1.248;2022-08-11T13:49:30;5.32;;;3.15;;
51382;SDS011;37475;43.358;1.248;2022-08-11T13:52:00;9.68;;;3.10;;
51382;SDS011;37475;43.358;1.248;2022-08-11T13:54:29;6.95;;;3.13;;
51382;SDS011;37475;43.358;1.248;2022-08-11T13:56:58;5.13;;;2.92;;
51382;SDS011;37475;43.358;1.248;2022-08-11T13:59:28;6.28;;;2.88;;
51382;SDS011;37475;43.358;1.248;2022-08-11T14:01:56;7.22;;;3.00;;
51382;SDS011;37475;43.358;1.248;2022-08-11T14:04:29;4.93;;;3.15;;
51382;SDS011;37475;43.358;1.248;2022-08-11T14:09:35;6.60;;;2.78;;
51382;SDS011;37475;43.358;1.248;2022-08-11T14:12:13;6.32;;;3.08;;
51382;SDS011;37475;43.358;1.248;2022-08-11T14:15:06;6.82;;;3.00;;
51382;SDS011;37475;43.358;1.248;2022-08-11T14:17:43;6.57;;;2.95;;
51382;SDS011;37475;43.358;1.248;2022-08-11T14:20:17;5.78;;;3.33;;
51382;SDS011;37475;43.358;1.248;2022-08-11T14:22:44;3.97;;;3.00;;
51382;SDS011;37475;43.358;1.248;2022-08-11T14:25:14;5.78;;;3.10;;
51382;SDS011;37475;43.358;1.248;2022-08-11T14:27:42;5.97;;;3.03;;
51382;SDS011;37475;43.358;1.248;2022-08-11T14:30:09;9.57;;;3.20;;
51382;SDS011;37475;43.358;1.248;2022-08-11T14:32:55;6.45;;;2.90;;
51382;SDS011;37475;43.358;1.248;2022-08-11T14:35:23;5.63;;;2.90;;
51382;SDS011;37475;43.358;1.248;2022-08-11T14:37:51;5.13;;;3.00;;
51382;SDS011;37475;43.358;1.248;2022-08-11T14:40:18;4.00;;;2.80;;
51382;SDS011;37475;43.358;1.248;2022-08-11T14:43:02;4.60;;;2.75;;
51382;SDS011;37475;43.358;1.248;2022-08-11T14:45:58;4.78;;;3.05;;
51382;SDS011;37475;43.358;1.248;2022-08-11T14:48:59;4.78;;;2.97;;
51382;SDS011;37475;43.358;1.248;2022-08-11T14:51:25;4.53;;;2.90;;
51382;SDS011;37475;43.358;1.248;2022-08-11T14:53:51;8.30;;;3.20;;
51382;SDS011;37475;43.358;1.248;2022-08-11T14:56:37;5.97;;;3.08;;
51382;SDS011;37475;43.358;1.248;2022-08-11T14:59:04;9.20;;;3.05;;
51382;SDS011;37475;43.358;1.248;2022-08-11T15:01:31;4.60;;;2.80;;
51382;SDS011;37475;43.358;1.248;2022-08-11T15:04:16;4.38;;;2.90;;
51382;SDS011;37475;43.358;1.248;2022-08-11T15:06:45;5.60;;;2.78;;
51382;SDS011;37475;43.358;1.248;2022-08-11T15:09:12;5.57;;;2.83;;
51382;SDS011;37475;43.358;1.248;2022-08-11T15:11:38;8.07;;;3.00;;
51382;SDS011;37475;43.358;1.248;2022-08-11T15:14:24;6.25;;;3.00;;
51382;SDS011;37475;43.358;1.248;2022-08-11T15:17:08;4.45;;;2.80;;
51382;SDS011;37475;43.358;1.248;2022-08-11T15:19:38;5.53;;;2.85;;
51382;SDS011;37475;43.358;1.248;2022-08-11T15:22:27;5.57;;;3.00;;
51382;SDS011;37475;43.358;1.248;2022-08-11T15:25:11;5.97;;;3.05;;
51382;SDS011;37475;43.358;1.248;2022-08-11T15:27:38;4.80;;;2.80;;
51382;SDS011;37475;43.358;1.248;2022-08-11T15:30:24;4.60;;;2.88;;
51382;SDS011;37475;43.358;1.248;2022-08-11T15:33:11;7.03;;;3.00;;
51382;SDS011;37475;43.358;1.248;2022-08-11T15:35:59;7.30;;;3.38;;
51382;SDS011;37475;43.358;1.248;2022-08-11T15:38:54;5.85;;;3.15;;
51382;SDS011;37475;43.358;1.248;2022-08-11T15:41:58;7.45;;;2.95;;
51382;SDS011;37475;43.358;1.248;2022-08-11T15:44:50;5.38;;;3.03;;
51382;SDS011;37475;43.358;1.248;2022-08-11T15:47:41;7.22;;;3.40;;
51382;SDS011;37475;43.358;1.248;2022-08-11T15:50:15;4.65;;;3.20;;
51382;SDS011;37475;43.358;1.248;2022-08-11T15:52:48;7.57;;;3.30;;
51382;SDS011;37475;43.358;1.248;2022-08-11T15:55:21;6.97;;;3.33;;
51382;SDS011;37475;43.358;1.248;2022-08-11T15:57:49;4.28;;;2.60;;
51382;SDS011;37475;43.358;1.248;2022-08-11T16:00:36;5.93;;;3.10;;
51382;SDS011;37475;43.358;1.248;2022-08-11T16:03:23;6.35;;;3.00;;
51382;SDS011;37475;43.358;1.248;2022-08-11T16:06:09;5.07;;;3.10;;
51382;SDS011;37475;43.358;1.248;2022-08-11T16:08:38;7.03;;;3.38;;
51382;SDS011;37475;43.358;1.248;2022-08-11T16:11:06;6.30;;;3.30;;
51382;SDS011;37475;43.358;1.248;2022-08-11T16:13:33;5.63;;;3.28;;
51382;SDS011;37475;43.358;1.248;2022-08-11T16:16:01;7.18;;;3.20;;
51382;SDS011;37475;43.358;1.248;2022-08-11T16:18:40;4.80;;;3.05;;
51382;SDS011;37475;43.358;1.248;2022-08-11T16:21:22;5.50;;;3.08;;
51382;SDS011;37475;43.358;1.248;2022-08-11T16:23:59;6.63;;;3.00;;
51382;SDS011;37475;43.358;1.248;2022-08-11T16:26:29;6.03;;;3.10;;
51382;SDS011;37475;43.358;1.248;2022-08-11T16:28:57;5.97;;;2.83;;
51382;SDS011;37475;43.358;1.248;2022-08-11T16:31:26;6.05;;;3.10;;
51382;SDS011;37475;43.358;1.248;2022-08-11T16:33:53;5.68;;;2.85;;
51382;SDS011;37475;43.358;1.248;2022-08-11T16:36:22;4.65;;;2.97;;
51382;SDS011;37475;43.358;1.248;2022-08-11T16:39:08;5.60;;;3.20;;
51382;SDS011;37475;43.358;1.248;2022-08-11T16:41:36;6.63;;;3.15;;
51382;SDS011;37475;43.358;1.248;2022-08-11T16:44:23;5.38;;;3.20;;
51382;SDS011;37475;43.358;1.248;2022-08-11T16:47:14;4.93;;;3.50;;
51382;SDS011;37475;43.358;1.248;2022-08-11T16:49:43;6.93;;;3.30;;
51382;SDS011;37475;43.358;1.248;2022-08-11T16:52:12;5.20;;;3.20;;
51382;SDS011;37475;43.358;1.248;2022-08-11T16:54:39;6.00;;;3.20;;
51382;SDS011;37475;43.358;1.248;2022-08-11T16:57:08;5.35;;;3.40;;
51382;SDS011;37475;43.358;1.248;2022-08-11T17:00:00;5.68;;;3.67;;
51382;SDS011;37475;43.358;1.248;2022-08-11T17:02:38;5.45;;;3.53;;
51382;SDS011;37475;43.358;1.248;2022-08-11T17:05:34;5.93;;;3.38;;
51382;SDS011;37475;43.358;1.248;2022-08-11T17:08:27;6.43;;;3.20;;
51382;SDS011;37475;43.358;1.248;2022-08-11T17:11:17;6.35;;;3.88;;
51382;SDS011;37475;43.358;1.248;2022-08-11T17:14:06;6.47;;;3.45;;
51382;SDS011;37475;43.358;1.248;2022-08-11T17:16:40;7.65;;;3.30;;
51382;SDS011;37475;43.358;1.248;2022-08-11T17:19:20;8.73;;;3.38;;
51382;SDS011;37475;43.358;1.248;2022-08-11T17:21:50;6.68;;;3.40;;
51382;SDS011;37475;43.358;1.248;2022-08-11T17:24:36;8.00;;;3.30;;
51382;SDS011;37475;43.358;1.248;2022-08-11T17:27:07;5.50;;;3.70;;
51382;SDS011;37475;43.358;1.248;2022-08-11T17:29:37;8.38;;;3.50;;
51382;SDS011;37475;43.358;1.248;2022-08-11T17:32:11;6.05;;;3.50;;
51382;SDS011;37475;43.358;1.248;2022-08-11T17:35:13;7.55;;;3.63;;
51382;SDS011;37475;43.358;1.248;2022-08-11T17:37:56;4.45;;;3.20;;
51382;SDS011;37475;43.358;1.248;2022-08-11T17:40:40;6.05;;;3.60;;
51382;SDS011;37475;43.358;1.248;2022-08-11T17:43:41;5.65;;;3.58;;
51382;SDS011;37475;43.358;1.248;2022-08-11T17:46:26;7.32;;;3.88;;
51382;SDS011;37475;43.358;1.248;2022-08-11T17:49:12;6.43;;;3.63;;
51382;SDS011;37475;43.358;1.248;2022-08-11T17:51:40;5.05;;;3.92;;
51382;SDS011;37475;43.358;1.248;2022-08-11T17:54:27;7.97;;;4.10;;
51382;SDS011;37475;43.358;1.248;2022-08-11T17:57:14;6.60;;;4.10;;
51382;SDS011;37475;43.358;1.248;2022-08-11T18:00:00;6.68;;;3.88;;
51382;SDS011;37475;43.358;1.248;2022-08-11T18:02:33;5.43;;;3.65;;
51382;SDS011;37475;43.358;1.248;2022-08-11T18:05:25;8.88;;;4.10;;
51382;SDS011;37475;43.358;1.248;2022-08-11T18:07:55;6.60;;;4.25;;
51382;SDS011;37475;43.358;1.248;2022-08-11T18:10:43;7.65;;;4.30;;
51382;SDS011;37475;43.358;1.248;2022-08-11T18:13:29;5.68;;;4.18;;
51382;SDS011;37475;43.358;1.248;2022-08-11T18:16:16;7.70;;;4.20;;
51382;SDS011;37475;43.358;1.248;2022-08-11T18:19:02;6.55;;;4.00;;
51382;SDS011;37475;43.358;1.248;2022-08-11T18:21:49;6.57;;;4.30;;
51382;SDS011;37475;43.358;1.248;2022-08-11T18:24:37;5.32;;;4.18;;
51382;SDS011;37475;43.358;1.248;2022-08-11T18:27:29;7.30;;;4.40;;
51382;SDS011;37475;43.358;1.248;2022-08-11T18:30:16;5.97;;;4.47;;
51382;SDS011;37475;43.358;1.248;2022-08-11T18:33:01;7.22;;;4.30;;
51382;SDS011;37475;43.358;1.248;2022-08-11T18:35:49;7.43;;;4.20;;
51382;SDS011;37475;43.358;1.248;2022-08-11T18:38:41;7.47;;;4.63;;
51382;SDS011;37475;43.358;1.248;2022-08-11T18:41:29;6.28;;;4.30;;
51382;SDS011;37475;43.358;1.248;2022-08-11T18:44:18;7.18;;;4.40;;
51382;SDS011;37475;43.358;1.248;2022-08-11T18:47:07;5.53;;;4.35;;
51382;SDS011;37475;43.358;1.248;2022-08-11T18:49:56;6.55;;;4.82;;
51382;SDS011;37475;43.358;1.248;2022-08-11T18:52:42;9.63;;;5.13;;
51382;SDS011;37475;43.358;1.248;2022-08-11T18:55:28;6.43;;;4.55;;
51382;SDS011;37475;43.358;1.248;2022-08-11T18:58:14;7.07;;;4.90;;
51382;SDS011;37475;43.358;1.248;2022-08-11T19:01:05;7.00;;;5.05;;
51382;SDS011;37475;43.358;1.248;2022-08-11T19:03:54;6.63;;;4.82;;
51382;SDS011;37475;43.358;1.248;2022-08-11T19:06:40;6.85;;;5.28;;
51382;SDS011;37475;43.358;1.248;2022-08-11T19:09:26;6.30;;;4.95;;
51382;SDS011;37475;43.358;1.248;2022-08-11T19:12:14;8.57;;;5.10;;
51382;SDS011;37475;43.358;1.248;2022-08-11T19:15:01;6.40;;;5.00;;
51382;SDS011;37475;43.358;1.248;2022-08-11T19:17:47;6.75;;;4.93;;
51382;SDS011;37475;43.358;1.248;2022-08-11T19:20:33;6.68;;;5.30;;
51382;SDS011;37475;43.358;1.248;2022-08-11T19:23:19;8.50;;;5.05;;
51382;SDS011;37475;43.358;1.248;2022-08-11T19:26:16;6.55;;;5.03;;
51382;SDS011;37475;43.358;1.248;2022-08-11T19:29:01;8.25;;;5.57;;
51382;SDS011;37475;43.358;1.248;2022-08-11T19:31:47;8.23;;;5.78;;
51382;SDS011;37475;43.358;1.248;2022-08-11T19:34:33;9.23;;;5.10;;
51382;SDS011;37475;43.358;1.248;2022-08-11T19:37:18;13.13;;;5.80;;
51382;SDS011;37475;43.358;1.248;2022-08-11T19:40:04;6.45;;;5.10;;